sensor_id;sensor_type;location;lat;lon;timestamp;temperature;humidity
11140;DHT22;5624;49.388;11.350;2024-03-17T00:01:33;3.70;99.90
11140;DHT22;5624;49.388;11.350;2024-03-17T00:03:58;3.80;99.90
11140;DHT22;5624;49.388;11.350;2024-03-17T00:06:24;3.80;99.90
11140;DHT22;5624;49.388;11.350;2024-03-17T00:08:50;3.70;99.90
11140;DHT22;5624;49.388;11.350;2024-03-17T00:11:15;3.60;99.90
11140;DHT22;5624;49.388;11.350;2024-03-17T00:13:41;3.50;99.90
11140;DHT22;5624;49.388;11.350;2024-03-17T00:16:07;3.50;99.90
11140;DHT22;5624;49.388;11.350;2024-03-17T00:18:32;3.50;99.90
11140;DHT22;5624;49.388;11.350;2024-03-17T00:20:58;3.50;99.90
11140;DHT22;5624;49.388;11.350;2024-03-17T00:23:25;3.60;99.90
11140;DHT22;5624;49.388;11.350;2024-03-17T00:25:50;3.40;99.90
11140;DHT22;5624;49.388;11.350;2024-03-17T00:28:16;3.30;99.90
11140;DHT22;5624;49.388;11.350;2024-03-17T00:30:42;3.30;99.90
11140;DHT22;5624;49.388;11.350;2024-03-17T00:33:07;3.30;99.90
11140;DHT22;5624;49.388;11.350;2024-03-17T00:35:33;3.30;99.90
11140;DHT22;5624;49.388;11.350;2024-03-17T00:37:59;3.30;99.90
11140;DHT22;5624;49.388;11.350;2024-03-17T00:40:25;3.40;99.90
11140;DHT22;5624;49.388;11.350;2024-03-17T00:42:51;3.30;99.90
11140;DHT22;5624;49.388;11.350;2024-03-17T00:45:16;3.30;99.90
11140;DHT22;5624;49.388;11.350;2024-03-17T00:47:42;3.30;99.90
11140;DHT22;5624;49.388;11.350;2024-03-17T00:50:09;3.20;99.90
11140;DHT22;5624;49.388;11.350;2024-03-17T00:52:36;3.40;99.90
11140;DHT22;5624;49.388;11.350;2024-03-17T00:55:02;3.30;99.90
11140;DHT22;5624;49.388;11.350;2024-03-17T00:57:28;3.20;99.90
11140;DHT22;5624;49.388;11.350;2024-03-17T00:59:53;3.10;99.90
11140;DHT22;5624;49.388;11.350;2024-03-17T01:02:19;3.10;99.90
11140;DHT22;5624;49.388;11.350;2024-03-17T01:04:47;2.90;99.90
11140;DHT22;5624;49.388;11.350;2024-03-17T01:07:12;2.90;99.90
11140;DHT22;5624;49.388;11.350;2024-03-17T01:09:38;2.80;99.90
11140;DHT22;5624;49.388;11.350;2024-03-17T01:12:04;2.80;99.90
11140;DHT22;5624;49.388;11.350;2024-03-17T01:14:31;2.80;99.90
11140;DHT22;5624;49.388;11.350;2024-03-17T01:19:23;3.00;99.90
11140;DHT22;5624;49.388;11.350;2024-03-17T01:21:50;3.10;99.90
11140;DHT22;5624;49.388;11.350;2024-03-17T01:24:17;3.20;99.90
11140;DHT22;5624;49.388;11.350;2024-03-17T01:26:42;3.30;99.90
11140;DHT22;5624;49.388;11.350;2024-03-17T01:29:08;3.40;99.90
11140;DHT22;5624;49.388;11.350;2024-03-17T01:31:34;3.50;99.90
11140;DHT22;5624;49.388;11.350;2024-03-17T01:34:00;3.50;99.90
11140;DHT22;5624;49.388;11.350;2024-03-17T01:36:26;3.60;99.90
11140;DHT22;5624;49.388;11.350;2024-03-17T01:38:51;3.70;99.90
11140;DHT22;5624;49.388;11.350;2024-03-17T01:41:17;3.70;99.90
11140;DHT22;5624;49.388;11.350;2024-03-17T01:43:43;3.80;99.90
11140;DHT22;5624;49.388;11.350;2024-03-17T01:46:13;4.00;99.90
11140;DHT22;5624;49.388;11.350;2024-03-17T01:48:39;4.00;99.90
11140;DHT22;5624;49.388;11.350;2024-03-17T01:51:05;4.00;99.90
11140;DHT22;5624;49.388;11.350;2024-03-17T01:53:32;4.00;99.90
11140;DHT22;5624;49.388;11.350;2024-03-17T01:55:59;4.00;99.90
11140;DHT22;5624;49.388;11.350;2024-03-17T01:58:25;4.00;99.90
11140;DHT22;5624;49.388;11.350;2024-03-17T02:00:52;3.90;99.90
11140;DHT22;5624;49.388;11.350;2024-03-17T02:03:18;3.80;99.90
11140;DHT22;5624;49.388;11.350;2024-03-17T02:05:44;3.70;99.90
11140;DHT22;5624;49.388;11.350;2024-03-17T02:08:10;3.80;99.90
11140;DHT22;5624;49.388;11.350;2024-03-17T02:10:37;3.80;99.90
11140;DHT22;5624;49.388;11.350;2024-03-17T02:13:03;3.70;99.90
11140;DHT22;5624;49.388;11.350;2024-03-17T02:15:29;3.80;99.90
11140;DHT22;5624;49.388;11.350;2024-03-17T02:17:55;3.70;99.90
11140;DHT22;5624;49.388;11.350;2024-03-17T02:20:21;3.60;99.90
11140;DHT22;5624;49.388;11.350;2024-03-17T02:22:50;3.60;99.90
11140;DHT22;5624;49.388;11.350;2024-03-17T02:25:15;3.50;99.90
11140;DHT22;5624;49.388;11.350;2024-03-17T02:27:41;3.50;99.90
11140;DHT22;5624;49.388;11.350;2024-03-17T02:30:07;3.50;99.90
11140;DHT22;5624;49.388;11.350;2024-03-17T02:32:35;3.50;99.90
11140;DHT22;5624;49.388;11.350;2024-03-17T02:35:00;3.60;99.90
11140;DHT22;5624;49.388;11.350;2024-03-17T02:37:26;3.70;99.90
11140;DHT22;5624;49.388;11.350;2024-03-17T02:39:52;3.80;99.90
11140;DHT22;5624;49.388;11.350;2024-03-17T02:42:18;3.80;99.90
11140;DHT22;5624;49.388;11.350;2024-03-17T02:44:44;3.80;99.90
11140;DHT22;5624;49.388;11.350;2024-03-17T02:47:09;3.80;99.90
11140;DHT22;5624;49.388;11.350;2024-03-17T02:49:35;3.80;99.90
11140;DHT22;5624;49.388;11.350;2024-03-17T02:52:15;3.70;99.90
11140;DHT22;5624;49.388;11.350;2024-03-17T02:54:40;3.70;99.90
11140;DHT22;5624;49.388;11.350;2024-03-17T02:57:06;3.70;99.90
11140;DHT22;5624;49.388;11.350;2024-03-17T02:59:32;3.60;99.90
11140;DHT22;5624;49.388;11.350;2024-03-17T03:01:59;3.50;99.90
11140;DHT22;5624;49.388;11.350;2024-03-17T03:04:25;3.40;99.90
11140;DHT22;5624;49.388;11.350;2024-03-17T03:06:50;3.40;99.90
11140;DHT22;5624;49.388;11.350;2024-03-17T03:09:16;3.40;99.90
11140;DHT22;5624;49.388;11.350;2024-03-17T03:11:51;3.20;99.90
11140;DHT22;5624;49.388;11.350;2024-03-17T03:14:17;3.20;99.90
11140;DHT22;5624;49.388;11.350;2024-03-17T03:16:43;3.00;99.90
11140;DHT22;5624;49.388;11.350;2024-03-17T03:19:09;3.00;99.90
11140;DHT22;5624;49.388;11.350;2024-03-17T03:21:34;3.00;99.90
11140;DHT22;5624;49.388;11.350;2024-03-17T03:24:00;3.00;99.90
11140;DHT22;5624;49.388;11.350;2024-03-17T03:26:25;3.10;99.90
11140;DHT22;5624;49.388;11.350;2024-03-17T03:28:51;3.20;99.90
11140;DHT22;5624;49.388;11.350;2024-03-17T03:31:17;3.30;99.90
11140;DHT22;5624;49.388;11.350;2024-03-17T03:33:43;3.20;99.90
11140;DHT22;5624;49.388;11.350;2024-03-17T03:36:13;3.20;99.90
11140;DHT22;5624;49.388;11.350;2024-03-17T03:38:39;3.20;99.90
11140;DHT22;5624;49.388;11.350;2024-03-17T03:43:33;3.20;99.90
11140;DHT22;5624;49.388;11.350;2024-03-17T03:46:00;3.20;99.90
11140;DHT22;5624;49.388;11.350;2024-03-17T03:48:25;3.20;99.90
11140;DHT22;5624;49.388;11.350;2024-03-17T03:50:51;3.20;99.90
11140;DHT22;5624;49.388;11.350;2024-03-17T03:53:16;3.20;99.90
11140;DHT22;5624;49.388;11.350;2024-03-17T03:55:42;3.20;99.90
11140;DHT22;5624;49.388;11.350;2024-03-17T03:58:07;3.30;99.90
11140;DHT22;5624;49.388;11.350;2024-03-17T04:00:33;3.40;99.90
11140;DHT22;5624;49.388;11.350;2024-03-17T04:02:59;3.50;99.90
11140;DHT22;5624;49.388;11.350;2024-03-17T04:05:27;3.50;99.90
11140;DHT22;5624;49.388;11.350;2024-03-17T04:07:52;3.50;99.90
11140;DHT22;5624;49.388;11.350;2024-03-17T04:10:18;3.50;99.90
11140;DHT22;5624;49.388;11.350;2024-03-17T04:12:46;3.40;99.90
11140;DHT22;5624;49.388;11.350;2024-03-17T04:15:11;3.30;99.90
11140;DHT22;5624;49.388;11.350;2024-03-17T04:17:37;3.40;99.90
11140;DHT22;5624;49.388;11.350;2024-03-17T04:20:04;3.40;99.90
11140;DHT22;5624;49.388;11.350;2024-03-17T04:22:33;3.30;99.90
11140;DHT22;5624;49.388;11.350;2024-03-17T04:24:58;3.20;99.90
11140;DHT22;5624;49.388;11.350;2024-03-17T04:27:25;3.20;99.90
11140;DHT22;5624;49.388;11.350;2024-03-17T04:29:52;3.20;99.90
11140;DHT22;5624;49.388;11.350;2024-03-17T04:32:19;3.20;99.90
11140;DHT22;5624;49.388;11.350;2024-03-17T04:34:44;3.30;99.90
11140;DHT22;5624;49.388;11.350;2024-03-17T04:37:10;3.30;99.90
11140;DHT22;5624;49.388;11.350;2024-03-17T04:39:38;3.30;99.90
11140;DHT22;5624;49.388;11.350;2024-03-17T04:42:04;3.30;99.90
11140;DHT22;5624;49.388;11.350;2024-03-17T04:44:30;3.30;99.90
11140;DHT22;5624;49.388;11.350;2024-03-17T04:46:55;3.30;99.90
11140;DHT22;5624;49.388;11.350;2024-03-17T04:49:21;3.30;99.90
11140;DHT22;5624;49.388;11.350;2024-03-17T04:51:46;3.40;99.90
11140;DHT22;5624;49.388;11.350;2024-03-17T04:54:12;3.40;99.90
11140;DHT22;5624;49.388;11.350;2024-03-17T04:56:37;3.40;99.90
11140;DHT22;5624;49.388;11.350;2024-03-17T04:59:03;3.40;99.90
11140;DHT22;5624;49.388;11.350;2024-03-17T05:01:28;3.40;99.90
11140;DHT22;5624;49.388;11.350;2024-03-17T05:03:56;3.40;99.90
11140;DHT22;5624;49.388;11.350;2024-03-17T05:06:22;3.40;99.90
11140;DHT22;5624;49.388;11.350;2024-03-17T05:08:47;3.40;99.90
11140;DHT22;5624;49.388;11.350;2024-03-17T05:11:13;3.40;99.90
11140;DHT22;5624;49.388;11.350;2024-03-17T05:13:41;3.40;99.90
11140;DHT22;5624;49.388;11.350;2024-03-17T05:16:07;3.60;99.90
11140;DHT22;5624;49.388;11.350;2024-03-17T05:18:32;3.60;99.90
11140;DHT22;5624;49.388;11.350;2024-03-17T05:21:05;3.50;99.90
11140;DHT22;5624;49.388;11.350;2024-03-17T05:23:32;3.50;99.90
11140;DHT22;5624;49.388;11.350;2024-03-17T05:25:58;3.50;99.90
11140;DHT22;5624;49.388;11.350;2024-03-17T05:28:25;3.50;99.90
11140;DHT22;5624;49.388;11.350;2024-03-17T05:30:51;3.50;99.90
11140;DHT22;5624;49.388;11.350;2024-03-17T05:33:18;3.60;99.90
11140;DHT22;5624;49.388;11.350;2024-03-17T05:35:55;3.70;99.90
11140;DHT22;5624;49.388;11.350;2024-03-17T05:38:22;3.70;99.90
11140;DHT22;5624;49.388;11.350;2024-03-17T05:40:58;3.70;99.90
11140;DHT22;5624;49.388;11.350;2024-03-17T05:43:27;3.80;99.90
11140;DHT22;5624;49.388;11.350;2024-03-17T05:45:54;3.80;99.90
11140;DHT22;5624;49.388;11.350;2024-03-17T05:48:20;3.80;99.90
11140;DHT22;5624;49.388;11.350;2024-03-17T05:50:46;3.80;99.90
11140;DHT22;5624;49.388;11.350;2024-03-17T05:53:12;3.80;99.90
11140;DHT22;5624;49.388;11.350;2024-03-17T05:55:37;3.90;99.90
11140;DHT22;5624;49.388;11.350;2024-03-17T05:58:03;3.80;99.90
11140;DHT22;5624;49.388;11.350;2024-03-17T06:00:29;3.80;99.90
11140;DHT22;5624;49.388;11.350;2024-03-17T06:02:56;3.90;99.90
11140;DHT22;5624;49.388;11.350;2024-03-17T06:05:22;4.00;99.90
11140;DHT22;5624;49.388;11.350;2024-03-17T06:07:48;4.10;99.90
11140;DHT22;5624;49.388;11.350;2024-03-17T06:10:14;4.10;99.90
11140;DHT22;5624;49.388;11.350;2024-03-17T06:12:39;4.10;99.90
11140;DHT22;5624;49.388;11.350;2024-03-17T06:15:05;4.00;99.90
11140;DHT22;5624;49.388;11.350;2024-03-17T06:17:31;4.00;99.90
11140;DHT22;5624;49.388;11.350;2024-03-17T06:19:57;4.10;99.90
11140;DHT22;5624;49.388;11.350;2024-03-17T06:22:23;4.00;99.90
11140;DHT22;5624;49.388;11.350;2024-03-17T06:24:49;4.00;99.90
11140;DHT22;5624;49.388;11.350;2024-03-17T06:27:15;4.20;99.90
11140;DHT22;5624;49.388;11.350;2024-03-17T06:29:41;4.20;99.90
11140;DHT22;5624;49.388;11.350;2024-03-17T06:32:08;4.30;99.90
11140;DHT22;5624;49.388;11.350;2024-03-17T06:34:33;4.30;99.90
11140;DHT22;5624;49.388;11.350;2024-03-17T06:36:59;4.40;99.90
11140;DHT22;5624;49.388;11.350;2024-03-17T06:39:25;4.50;99.90
11140;DHT22;5624;49.388;11.350;2024-03-17T06:41:51;4.70;99.90
11140;DHT22;5624;49.388;11.350;2024-03-17T06:44:16;4.70;99.90
11140;DHT22;5624;49.388;11.350;2024-03-17T06:46:42;4.60;99.90
11140;DHT22;5624;49.388;11.350;2024-03-17T06:49:09;4.60;99.90
11140;DHT22;5624;49.388;11.350;2024-03-17T06:51:34;4.70;99.90
11140;DHT22;5624;49.388;11.350;2024-03-17T06:54:00;4.80;99.90
11140;DHT22;5624;49.388;11.350;2024-03-17T06:56:26;4.90;99.90
11140;DHT22;5624;49.388;11.350;2024-03-17T06:58:52;5.00;99.90
11140;DHT22;5624;49.388;11.350;2024-03-17T07:01:17;5.00;99.90
11140;DHT22;5624;49.388;11.350;2024-03-17T07:03:43;5.20;99.90
11140;DHT22;5624;49.388;11.350;2024-03-17T07:06:09;5.40;99.90
11140;DHT22;5624;49.388;11.350;2024-03-17T07:08:35;5.40;99.90
11140;DHT22;5624;49.388;11.350;2024-03-17T07:11:03;5.50;99.90
11140;DHT22;5624;49.388;11.350;2024-03-17T07:13:30;5.60;99.90
11140;DHT22;5624;49.388;11.350;2024-03-17T07:15:56;5.70;99.90
11140;DHT22;5624;49.388;11.350;2024-03-17T07:18:21;6.00;99.90
11140;DHT22;5624;49.388;11.350;2024-03-17T07:20:47;6.30;99.00
11140;DHT22;5624;49.388;11.350;2024-03-17T07:23:14;6.60;97.20
11140;DHT22;5624;49.388;11.350;2024-03-17T07:25:41;7.00;93.60
11140;DHT22;5624;49.388;11.350;2024-03-17T07:28:06;7.20;91.20
11140;DHT22;5624;49.388;11.350;2024-03-17T07:30:32;6.90;89.70
11140;DHT22;5624;49.388;11.350;2024-03-17T07:32:58;7.50;88.00
11140;DHT22;5624;49.388;11.350;2024-03-17T07:35:23;7.50;88.50
11140;DHT22;5624;49.388;11.350;2024-03-17T07:37:49;7.80;85.80
11140;DHT22;5624;49.388;11.350;2024-03-17T07:40:14;8.30;82.70
11140;DHT22;5624;49.388;11.350;2024-03-17T07:42:41;8.90;82.70
11140;DHT22;5624;49.388;11.350;2024-03-17T07:45:07;9.70;79.80
11140;DHT22;5624;49.388;11.350;2024-03-17T07:47:33;10.20;74.80
11140;DHT22;5624;49.388;11.350;2024-03-17T07:50:04;10.20;72.90
11140;DHT22;5624;49.388;11.350;2024-03-17T07:52:33;10.00;74.20
11140;DHT22;5624;49.388;11.350;2024-03-17T07:54:59;10.60;72.20
11140;DHT22;5624;49.388;11.350;2024-03-17T07:57:24;11.40;72.10
11140;DHT22;5624;49.388;11.350;2024-03-17T07:59:50;12.20;65.30
11140;DHT22;5624;49.388;11.350;2024-03-17T08:02:16;12.00;61.50
11140;DHT22;5624;49.388;11.350;2024-03-17T08:04:42;11.80;67.10
11140;DHT22;5624;49.388;11.350;2024-03-17T08:07:09;11.70;64.90
11140;DHT22;5624;49.388;11.350;2024-03-17T08:09:35;11.50;63.20
11140;DHT22;5624;49.388;11.350;2024-03-17T08:12:01;11.30;65.10
11140;DHT22;5624;49.388;11.350;2024-03-17T08:14:27;11.20;65.40
11140;DHT22;5624;49.388;11.350;2024-03-17T08:16:53;11.40;64.20
11140;DHT22;5624;49.388;11.350;2024-03-17T08:19:18;10.70;65.90
11140;DHT22;5624;49.388;11.350;2024-03-17T08:21:44;10.50;68.70
11140;DHT22;5624;49.388;11.350;2024-03-17T08:24:10;10.70;69.50
11140;DHT22;5624;49.388;11.350;2024-03-17T08:26:36;10.50;70.30
11140;DHT22;5624;49.388;11.350;2024-03-17T08:29:01;10.50;70.90
11140;DHT22;5624;49.388;11.350;2024-03-17T08:31:27;11.00;68.00
11140;DHT22;5624;49.388;11.350;2024-03-17T08:33:53;11.70;67.20
11140;DHT22;5624;49.388;11.350;2024-03-17T08:36:18;12.40;69.40
11140;DHT22;5624;49.388;11.350;2024-03-17T08:38:45;13.10;61.50
11140;DHT22;5624;49.388;11.350;2024-03-17T08:41:11;14.10;62.20
11140;DHT22;5624;49.388;11.350;2024-03-17T08:43:38;14.10;57.30
11140;DHT22;5624;49.388;11.350;2024-03-17T08:46:07;14.40;54.80
11140;DHT22;5624;49.388;11.350;2024-03-17T08:48:38;14.90;57.60
11140;DHT22;5624;49.388;11.350;2024-03-17T08:51:05;14.90;54.60
11140;DHT22;5624;49.388;11.350;2024-03-17T08:53:31;15.10;54.40
11140;DHT22;5624;49.388;11.350;2024-03-17T08:55:57;14.10;53.10
11140;DHT22;5624;49.388;11.350;2024-03-17T08:58:24;13.90;56.50
11140;DHT22;5624;49.388;11.350;2024-03-17T09:00:49;13.70;52.00
11140;DHT22;5624;49.388;11.350;2024-03-17T09:03:16;13.70;52.80
11140;DHT22;5624;49.388;11.350;2024-03-17T09:05:43;13.50;52.80
11140;DHT22;5624;49.388;11.350;2024-03-17T09:08:20;13.70;50.90
11140;DHT22;5624;49.388;11.350;2024-03-17T09:10:48;13.30;49.70
11140;DHT22;5624;49.388;11.350;2024-03-17T09:13:22;13.10;50.50
11140;DHT22;5624;49.388;11.350;2024-03-17T09:15:57;13.10;52.70
11140;DHT22;5624;49.388;11.350;2024-03-17T09:18:25;13.90;55.50
11140;DHT22;5624;49.388;11.350;2024-03-17T09:20:58;15.00;54.90
11140;DHT22;5624;49.388;11.350;2024-03-17T09:23:23;15.40;51.20
11140;DHT22;5624;49.388;11.350;2024-03-17T09:26:03;15.50;45.30
11140;DHT22;5624;49.388;11.350;2024-03-17T09:28:30;15.40;49.00
11140;DHT22;5624;49.388;11.350;2024-03-17T09:30:56;15.50;48.70
11140;DHT22;5624;49.388;11.350;2024-03-17T09:33:23;16.00;47.50
11140;DHT22;5624;49.388;11.350;2024-03-17T09:36:03;15.90;46.00
11140;DHT22;5624;49.388;11.350;2024-03-17T09:38:29;15.00;47.20
11140;DHT22;5624;49.388;11.350;2024-03-17T09:40:55;14.30;50.30
11140;DHT22;5624;49.388;11.350;2024-03-17T09:43:27;13.90;51.40
11140;DHT22;5624;49.388;11.350;2024-03-17T09:45:54;13.60;55.00
11140;DHT22;5624;49.388;11.350;2024-03-17T09:48:23;14.40;52.70
11140;DHT22;5624;49.388;11.350;2024-03-17T09:51:07;14.90;53.30
11140;DHT22;5624;49.388;11.350;2024-03-17T09:53:35;15.70;47.20
11140;DHT22;5624;49.388;11.350;2024-03-17T09:56:15;15.80;48.90
11140;DHT22;5624;49.388;11.350;2024-03-17T09:58:42;16.30;49.60
11140;DHT22;5624;49.388;11.350;2024-03-17T10:01:08;15.90;47.80
11140;DHT22;5624;49.388;11.350;2024-03-17T10:06:13;14.90;49.50
11140;DHT22;5624;49.388;11.350;2024-03-17T10:08:49;14.90;48.60
11140;DHT22;5624;49.388;11.350;2024-03-17T10:11:17;14.50;50.60
11140;DHT22;5624;49.388;11.350;2024-03-17T10:13:47;14.40;52.40
11140;DHT22;5624;49.388;11.350;2024-03-17T10:16:25;14.50;52.20
11140;DHT22;5624;49.388;11.350;2024-03-17T10:19:07;14.50;52.50
11140;DHT22;5624;49.388;11.350;2024-03-17T10:21:35;15.10;49.10
11140;DHT22;5624;49.388;11.350;2024-03-17T10:26:50;15.60;49.20
11140;DHT22;5624;49.388;11.350;2024-03-17T10:29:35;15.40;48.90
11140;DHT22;5624;49.388;11.350;2024-03-17T10:34:38;14.40;50.20
11140;DHT22;5624;49.388;11.350;2024-03-17T10:37:14;14.00;53.10
11140;DHT22;5624;49.388;11.350;2024-03-17T10:39:43;13.80;51.10
11140;DHT22;5624;49.388;11.350;2024-03-17T10:42:11;14.70;55.40
11140;DHT22;5624;49.388;11.350;2024-03-17T10:44:38;15.60;50.10
11140;DHT22;5624;49.388;11.350;2024-03-17T10:47:04;16.40;49.00
11140;DHT22;5624;49.388;11.350;2024-03-17T10:49:37;17.00;45.50
11140;DHT22;5624;49.388;11.350;2024-03-17T10:52:08;17.10;43.50
11140;DHT22;5624;49.388;11.350;2024-03-17T10:54:40;16.60;46.40
11140;DHT22;5624;49.388;11.350;2024-03-17T10:57:32;15.70;48.50
11140;DHT22;5624;49.388;11.350;2024-03-17T11:00:05;15.50;49.40
11140;DHT22;5624;49.388;11.350;2024-03-17T11:02:34;15.20;50.20
11140;DHT22;5624;49.388;11.350;2024-03-17T11:05:05;15.30;49.10
11140;DHT22;5624;49.388;11.350;2024-03-17T11:07:37;15.20;51.20
11140;DHT22;5624;49.388;11.350;2024-03-17T11:10:04;14.90;50.10
11140;DHT22;5624;49.388;11.350;2024-03-17T11:12:47;14.90;52.30
11140;DHT22;5624;49.388;11.350;2024-03-17T11:17:45;14.60;52.20
11140;DHT22;5624;49.388;11.350;2024-03-17T11:20:15;14.80;50.50
11140;DHT22;5624;49.388;11.350;2024-03-17T11:22:49;14.60;51.40
11140;DHT22;5624;49.388;11.350;2024-03-17T11:27:56;14.70;52.20
11140;DHT22;5624;49.388;11.350;2024-03-17T11:41:51;14.60;52.80
11140;DHT22;5624;49.388;11.350;2024-03-17T11:46:58;15.10;53.60
11140;DHT22;5624;49.388;11.350;2024-03-17T11:51:54;15.20;51.70
11140;DHT22;5624;49.388;11.350;2024-03-17T11:54:26;15.40;51.90
11140;DHT22;5624;49.388;11.350;2024-03-17T11:56:56;15.80;50.90
11140;DHT22;5624;49.388;11.350;2024-03-17T11:59:25;16.40;50.30
11140;DHT22;5624;49.388;11.350;2024-03-17T12:01:51;16.30;45.60
11140;DHT22;5624;49.388;11.350;2024-03-17T12:04:19;16.50;47.30
11140;DHT22;5624;49.388;11.350;2024-03-17T12:06:46;16.90;46.70
11140;DHT22;5624;49.388;11.350;2024-03-17T12:09:19;17.20;47.30
11140;DHT22;5624;49.388;11.350;2024-03-17T12:11:49;16.80;46.90
11140;DHT22;5624;49.388;11.350;2024-03-17T12:14:18;16.80;48.00
11140;DHT22;5624;49.388;11.350;2024-03-17T12:16:55;17.10;48.00
11140;DHT22;5624;49.388;11.350;2024-03-17T12:19:21;17.70;46.40
11140;DHT22;5624;49.388;11.350;2024-03-17T12:21:52;17.70;46.40
11140;DHT22;5624;49.388;11.350;2024-03-17T12:24:24;17.40;46.70
11140;DHT22;5624;49.388;11.350;2024-03-17T12:26:50;17.60;47.50
11140;DHT22;5624;49.388;11.350;2024-03-17T12:31:56;17.50;42.70
11140;DHT22;5624;49.388;11.350;2024-03-17T12:34:25;17.30;43.30
11140;DHT22;5624;49.388;11.350;2024-03-17T12:36:55;17.40;44.30
11140;DHT22;5624;49.388;11.350;2024-03-17T12:39:25;16.70;44.00
11140;DHT22;5624;49.388;11.350;2024-03-17T12:42:11;16.50;46.20
11140;DHT22;5624;49.388;11.350;2024-03-17T12:44:52;16.40;47.70
11140;DHT22;5624;49.388;11.350;2024-03-17T12:47:21;15.90;46.40
11140;DHT22;5624;49.388;11.350;2024-03-17T12:49:54;15.50;48.30
11140;DHT22;5624;49.388;11.350;2024-03-17T12:52:22;15.40;47.50
11140;DHT22;5624;49.388;11.350;2024-03-17T12:55:04;14.80;47.30
11140;DHT22;5624;49.388;11.350;2024-03-17T12:58:04;14.50;48.60
11140;DHT22;5624;49.388;11.350;2024-03-17T13:01:02;14.40;50.60
11140;DHT22;5624;49.388;11.350;2024-03-17T13:03:32;14.00;52.20
11140;DHT22;5624;49.388;11.350;2024-03-17T13:05:59;14.00;52.90
11140;DHT22;5624;49.388;11.350;2024-03-17T13:08:26;14.10;52.50
11140;DHT22;5624;49.388;11.350;2024-03-17T13:10:51;14.40;52.80
11140;DHT22;5624;49.388;11.350;2024-03-17T13:13:17;14.60;50.80
11140;DHT22;5624;49.388;11.350;2024-03-17T13:15:43;14.60;50.00
11140;DHT22;5624;49.388;11.350;2024-03-17T13:18:11;14.80;51.00
11140;DHT22;5624;49.388;11.350;2024-03-17T13:20:40;14.80;51.30
11140;DHT22;5624;49.388;11.350;2024-03-17T13:23:07;14.90;53.90
11140;DHT22;5624;49.388;11.350;2024-03-17T13:25:33;14.60;51.20
11140;DHT22;5624;49.388;11.350;2024-03-17T13:28:01;14.70;51.60
11140;DHT22;5624;49.388;11.350;2024-03-17T13:30:27;14.80;51.60
11140;DHT22;5624;49.388;11.350;2024-03-17T13:32:55;14.80;52.90
11140;DHT22;5624;49.388;11.350;2024-03-17T13:35:28;14.70;51.80
11140;DHT22;5624;49.388;11.350;2024-03-17T13:37:58;14.80;50.70
11140;DHT22;5624;49.388;11.350;2024-03-17T13:40:25;14.80;49.90
11140;DHT22;5624;49.388;11.350;2024-03-17T13:42:53;14.60;52.20
11140;DHT22;5624;49.388;11.350;2024-03-17T13:45:20;14.50;52.20
11140;DHT22;5624;49.388;11.350;2024-03-17T13:48:00;14.60;51.30
11140;DHT22;5624;49.388;11.350;2024-03-17T13:50:26;14.40;52.20
11140;DHT22;5624;49.388;11.350;2024-03-17T13:52:52;14.20;54.60
11140;DHT22;5624;49.388;11.350;2024-03-17T13:55:22;14.10;51.60
11140;DHT22;5624;49.388;11.350;2024-03-17T13:57:52;13.90;52.80
11140;DHT22;5624;49.388;11.350;2024-03-17T14:00:20;13.60;53.40
11140;DHT22;5624;49.388;11.350;2024-03-17T14:02:47;13.30;54.30
11140;DHT22;5624;49.388;11.350;2024-03-17T14:05:17;13.40;54.80
11140;DHT22;5624;49.388;11.350;2024-03-17T14:07:43;13.50;55.10
11140;DHT22;5624;49.388;11.350;2024-03-17T14:10:14;13.40;56.80
11140;DHT22;5624;49.388;11.350;2024-03-17T14:12:40;13.50;54.90
11140;DHT22;5624;49.388;11.350;2024-03-17T14:15:07;13.70;54.90
11140;DHT22;5624;49.388;11.350;2024-03-17T14:17:42;13.50;55.10
11140;DHT22;5624;49.388;11.350;2024-03-17T14:20:09;13.40;54.40
11140;DHT22;5624;49.388;11.350;2024-03-17T14:22:39;13.30;54.90
11140;DHT22;5624;49.388;11.350;2024-03-17T14:25:06;13.20;55.90
11140;DHT22;5624;49.388;11.350;2024-03-17T14:27:32;13.20;55.30
11140;DHT22;5624;49.388;11.350;2024-03-17T14:29:59;13.10;56.00
11140;DHT22;5624;49.388;11.350;2024-03-17T14:32:25;13.00;55.50
11140;DHT22;5624;49.388;11.350;2024-03-17T14:34:50;13.10;56.80
11140;DHT22;5624;49.388;11.350;2024-03-17T14:37:16;13.20;56.40
11140;DHT22;5624;49.388;11.350;2024-03-17T14:39:41;13.20;56.10
11140;DHT22;5624;49.388;11.350;2024-03-17T14:42:07;13.10;55.80
11140;DHT22;5624;49.388;11.350;2024-03-17T14:44:34;13.00;56.20
11140;DHT22;5624;49.388;11.350;2024-03-17T14:47:01;13.00;57.10
11140;DHT22;5624;49.388;11.350;2024-03-17T14:49:27;13.00;57.40
11140;DHT22;5624;49.388;11.350;2024-03-17T14:51:53;13.00;56.30
11140;DHT22;5624;49.388;11.350;2024-03-17T14:54:19;13.00;56.90
11140;DHT22;5624;49.388;11.350;2024-03-17T14:56:45;13.00;56.80
11140;DHT22;5624;49.388;11.350;2024-03-17T14:59:11;12.80;57.40
11140;DHT22;5624;49.388;11.350;2024-03-17T15:01:37;12.70;58.00
11140;DHT22;5624;49.388;11.350;2024-03-17T15:04:03;12.70;56.50
11140;DHT22;5624;49.388;11.350;2024-03-17T15:06:28;12.50;58.00
11140;DHT22;5624;49.388;11.350;2024-03-17T15:08:54;12.40;58.60
11140;DHT22;5624;49.388;11.350;2024-03-17T15:11:19;12.40;57.20
11140;DHT22;5624;49.388;11.350;2024-03-17T15:13:45;12.40;57.50
11140;DHT22;5624;49.388;11.350;2024-03-17T15:16:11;12.50;58.10
11140;DHT22;5624;49.388;11.350;2024-03-17T15:18:37;12.40;58.50
11140;DHT22;5624;49.388;11.350;2024-03-17T15:21:03;12.50;57.70
11140;DHT22;5624;49.388;11.350;2024-03-17T15:23:32;12.40;58.80
11140;DHT22;5624;49.388;11.350;2024-03-17T15:26:05;12.40;59.00
11140;DHT22;5624;49.388;11.350;2024-03-17T15:28:41;12.30;58.70
11140;DHT22;5624;49.388;11.350;2024-03-17T15:31:07;12.30;60.30
11140;DHT22;5624;49.388;11.350;2024-03-17T15:33:34;12.20;58.40
11140;DHT22;5624;49.388;11.350;2024-03-17T15:36:01;12.10;59.70
11140;DHT22;5624;49.388;11.350;2024-03-17T15:38:32;12.00;60.10
11140;DHT22;5624;49.388;11.350;2024-03-17T15:41:06;11.90;59.10
11140;DHT22;5624;49.388;11.350;2024-03-17T15:43:35;11.80;60.00
11140;DHT22;5624;49.388;11.350;2024-03-17T15:46:06;11.80;62.10
11140;DHT22;5624;49.388;11.350;2024-03-17T15:48:33;11.80;61.80
11140;DHT22;5624;49.388;11.350;2024-03-17T15:50:58;11.80;61.40
11140;DHT22;5624;49.388;11.350;2024-03-17T15:53:24;11.70;61.20
11140;DHT22;5624;49.388;11.350;2024-03-17T15:55:56;11.60;62.00
11140;DHT22;5624;49.388;11.350;2024-03-17T15:58:23;11.60;63.60
11140;DHT22;5624;49.388;11.350;2024-03-17T16:00:48;11.60;64.30
11140;DHT22;5624;49.388;11.350;2024-03-17T16:03:14;11.60;62.90
11140;DHT22;5624;49.388;11.350;2024-03-17T16:05:46;11.50;63.80
11140;DHT22;5624;49.388;11.350;2024-03-17T16:08:13;11.60;63.60
11140;DHT22;5624;49.388;11.350;2024-03-17T16:10:40;11.50;63.40
11140;DHT22;5624;49.388;11.350;2024-03-17T16:13:05;11.30;64.00
11140;DHT22;5624;49.388;11.350;2024-03-17T16:15:31;11.30;65.10
11140;DHT22;5624;49.388;11.350;2024-03-17T16:17:57;11.20;65.00